Time;durP1;ratioP1;P1;durP2;ratioP2;P2;SDS_P1;SDS_P2;PMS_P1;PMS_P2;Temp;Humidity;BMP_temperature;BMP_pressure;BME280_temperature;BME280_humidity;BME280_pressure;Samples;Min_cycle;Max_cycle;Signal;HPM_P1;HPM_P2
2021/10/15 00:00:37;;;;;;;;;34.00;32.00;;;;;9.92;70.72;101908.16;5061139;28;45318;-78
2021/10/15 00:03:02;;;;;;;;;31.25;28.50;;;;;9.90;70.51;101915.19;5061874;28;45322;-76
2021/10/15 00:05:29;;;;;;;;;33.50;31.75;;;;;9.94;71.05;101910.75;5061712;28;45553;-76
2021/10/15 00:07:54;;;;;;;;;34.50;31.50;;;;;9.93;70.69;101906.38;5061663;28;45269;-76
2021/10/15 00:10:20;;;;;;;;;36.75;32.25;;;;;9.89;70.94;101900.28;5060609;28;45219;-76
2021/10/15 00:12:45;;;;;;;;;40.25;32.50;;;;;9.88;70.98;101903.78;5060695;28;45438;-76
2021/10/15 00:15:11;;;;;;;;;32.25;28.50;;;;;9.86;70.79;101901.19;5061365;28;45237;-76
2021/10/15 00:17:36;;;;;;;;;37.75;30.50;;;;;9.87;70.77;101907.31;5061608;28;46207;-76
2021/10/15 00:20:04;;;;;;;;;23.75;17.75;;;;;9.81;71.09;101903.00;5060286;28;45519;-76
2021/10/15 00:22:29;;;;;;;;;32.25;29.75;;;;;9.84;70.95;101908.22;5061138;28;45448;-76
2021/10/15 00:24:54;;;;;;;;;42.50;34.75;;;;;9.78;70.73;101909.16;5060347;28;45409;-77
2021/10/15 00:27:20;;;;;;;;;33.50;30.75;;;;;9.77;71.03;101904.81;5061391;28;45338;-76
2021/10/15 00:29:45;;;;;;;;;31.75;29.00;;;;;9.77;70.69;101902.19;5059960;28;45295;-77
2021/10/15 00:32:10;;;;;;;;;41.25;33.00;;;;;9.75;70.98;101892.56;5059909;28;45452;-77
2021/10/15 00:34:36;;;;;;;;;38.50;32.25;;;;;9.78;71.06;101905.66;5061038;28;45337;-76
2021/10/15 00:37:01;;;;;;;;;32.25;30.00;;;;;9.77;70.87;101906.56;5059160;28;45488;-76
2021/10/15 00:39:26;;;;;;;;;34.25;31.75;;;;;9.74;70.73;101906.56;5060116;28;45318;-76
2021/10/15 00:41:52;;;;;;;;;35.50;30.00;;;;;9.73;70.81;101908.31;5060892;28;45494;-76
2021/10/15 00:44:17;;;;;;;;;31.25;30.50;;;;;9.71;71.16;101903.97;5061101;28;45463;-77
2021/10/15 00:46:43;;;;;;;;;31.00;30.50;;;;;9.67;71.12;101906.66;5060161;28;45472;-77
2021/10/15 00:49:11;;;;;;;;;31.50;30.50;;;;;9.64;71.13;101900.56;5061213;28;45187;-77
2021/10/15 00:51:41;;;;;;;;;38.00;31.25;;;;;9.63;71.29;101898.84;5061021;28;45290;-77
2021/10/15 00:54:07;;;;;;;;;37.00;32.25;;;;;9.66;71.24;101906.66;5061315;28;45433;-77
2021/10/15 00:56:32;;;;;;;;;43.50;35.00;;;;;9.64;71.10;101903.19;5058980;28;46075;-77
2021/10/15 00:59:01;;;;;;;;;31.75;31.25;;;;;9.62;71.22;101903.19;5060580;28;45336;-77
2021/10/15 01:01:27;;;;;;;;;35.75;32.75;;;;;9.62;70.91;101895.31;5061128;28;45227;-77
2021/10/15 01:03:53;;;;;;;;;33.25;29.25;;;;;9.61;71.51;101897.94;5060763;28;45423;-77
2021/10/15 01:06:19;;;;;;;;;28.00;28.00;;;;;9.59;71.10;101890.09;5059955;28;45636;-76
2021/10/15 01:08:47;;;;;;;;;36.25;30.50;;;;;9.63;71.41;101893.59;5060657;28;45860;-76
2021/10/15 01:11:17;;;;;;;;;39.00;33.75;;;;;9.61;71.55;101882.19;5060536;28;45304;-76
2021/10/15 01:13:43;;;;;;;;;34.25;31.75;;;;;9.61;71.43;101880.44;5059083;28;45143;-76
2021/10/15 01:16:11;;;;;;;;;31.00;30.00;;;;;9.60;71.18;101883.97;5060172;28;45544;-76
2021/10/15 01:18:38;;;;;;;;;36.50;32.00;;;;;9.62;71.19;101882.19;5060399;28;45242;-76
2021/10/15 01:21:08;;;;;;;;;33.00;27.50;;;;;9.57;71.10;101884.00;5067181;28;45256;-76
2021/10/15 01:23:34;;;;;;;;;36.50;31.75;;;;;9.57;71.37;101878.75;5060476;28;45614;-76
2021/10/15 01:26:00;;;;;;;;;31.75;30.50;;;;;9.59;71.25;101876.97;5060120;28;46276;-76
2021/10/15 01:28:27;;;;;;;;;34.25;32.50;;;;;9.56;71.19;101877.00;5059882;28;45404;-76
2021/10/15 01:30:53;;;;;;;;;32.00;29.50;;;;;9.56;71.35;101882.25;5059658;28;45428;-76
2021/10/15 01:33:20;;;;;;;;;36.25;31.75;;;;;9.56;71.46;101875.25;5058616;28;45542;-76
2021/10/15 01:35:45;;;;;;;;;38.50;34.00;;;;;9.52;71.58;101868.31;5060376;28;45532;-76
2021/10/15 01:38:12;;;;;;;;;37.00;33.00;;;;;9.49;71.28;101862.19;5059762;28;45448;-77
2021/10/15 01:40:37;;;;;;;;;37.25;32.00;;;;;9.49;71.52;101857.84;5059607;28;45180;-75
2021/10/15 01:43:03;;;;;;;;;37.25;32.00;;;;;9.52;71.54;101862.19;5059721;28;45529;-75
2021/10/15 01:45:30;;;;;;;;;37.00;33.50;;;;;9.50;71.55;101861.31;5060088;28;45495;-75
2021/10/15 01:47:56;;;;;;;;;37.50;33.00;;;;;9.49;71.45;101860.44;5060220;28;45910;-74
2021/10/15 01:50:23;;;;;;;;;36.75;32.00;;;;;9.48;71.62;101855.22;5058293;28;45622;-76
2021/10/15 01:52:49;;;;;;;;;40.00;31.00;;;;;9.50;71.30;101854.34;5059480;28;45371;-76
2021/10/15 01:55:15;;;;;;;;;38.25;32.75;;;;;9.45;71.29;101849.13;5059775;28;45313;-76
2021/10/15 01:57:41;;;;;;;;;29.25;29.25;;;;;9.47;71.20;101856.09;5059044;28;45228;-76
2021/10/15 02:00:09;;;;;;;;;41.75;30.75;;;;;9.46;71.41;101849.97;5057446;28;45311;-76
2021/10/15 02:02:34;;;;;;;;;33.75;31.25;;;;;9.45;71.38;101854.38;5059818;28;45475;-76
2021/10/15 02:04:59;;;;;;;;;33.25;32.00;;;;;9.38;71.33;101843.97;5058968;28;46304;-77
2021/10/15 02:07:25;;;;;;;;;34.00;32.00;;;;;9.40;71.24;101850.06;5059784;28;45275;-77
2021/10/15 02:09:51;;;;;;;;;38.25;34.50;;;;;9.41;71.41;101846.53;5059793;28;45436;-76
2021/10/15 02:12:17;;;;;;;;;37.50;31.25;;;;;9.40;71.40;101853.56;5058315;28;45415;-76
2021/10/15 02:14:42;;;;;;;;;32.25;30.75;;;;;9.39;71.40;101850.94;5058354;28;46410;-77
2021/10/15 02:17:07;;;;;;;;;28.50;27.00;;;;;9.37;71.26;101847.44;5059552;28;45338;-77
2021/10/15 02:19:33;;;;;;;;;40.00;34.25;;;;;9.36;71.76;101846.56;5059578;28;45534;-75
2021/10/15 02:21:58;;;;;;;;;34.75;30.00;;;;;9.32;71.56;101839.63;5063368;28;45511;-75
2021/10/15 02:24:24;;;;;;;;;43.25;34.50;;;;;9.32;71.52;101839.63;5059291;28;46351;-75
2021/10/15 02:26:49;;;;;;;;;34.25;31.00;;;;;9.34;71.62;101840.47;5058069;28;45241;-75
2021/10/15 02:29:15;;;;;;;;;36.00;32.25;;;;;9.32;71.46;101834.38;5059461;28;45298;-76
2021/10/15 02:31:42;;;;;;;;;33.25;30.00;;;;;9.35;71.62;101839.59;5057652;28;45308;-75
2021/10/15 02:34:08;;;;;;;;;40.50;32.00;;;;;9.33;71.66;101838.75;5059438;28;45749;-75
2021/10/15 02:36:33;;;;;;;;;35.50;30.50;;;;;9.28;71.62;101827.44;5059215;28;45239;-75
2021/10/15 02:38:58;;;;;;;;;33.50;31.00;;;;;9.27;71.24;101818.69;5059262;28;45254;-75
2021/10/15 02:41:24;;;;;;;;;33.50;28.50;;;;;9.31;71.43;101827.41;5058573;28;45464;-75
2021/10/15 02:43:49;;;;;;;;;35.75;32.00;;;;;9.28;71.05;101822.19;5059100;28;45627;-75
2021/10/15 02:46:15;;;;;;;;;36.25;32.50;;;;;9.23;71.52;101823.09;5059277;28;45338;-77
2021/10/15 02:48:41;;;;;;;;;28.50;25.50;;;;;9.27;71.29;101829.19;5059643;28;45504;-76
2021/10/15 02:51:07;;;;;;;;;35.75;31.50;;;;;9.27;71.45;101828.31;5058966;28;45506;-76
2021/10/15 02:53:32;;;;;;;;;31.25;30.75;;;;;9.23;71.46;101819.63;5058331;28;45444;-76
2021/10/15 02:55:58;;;;;;;;;32.50;30.75;;;;;9.23;71.62;101828.34;5059145;28;45421;-76
2021/10/15 02:58:23;;;;;;;;;33.50;30.00;;;;;9.17;71.72;101820.53;5059293;28;45342;-76
2021/10/15 03:00:50;;;;;;;;;32.50;29.75;;;;;9.22;71.62;101825.72;5059828;28;45587;-76
2021/10/15 03:03:16;;;;;;;;;34.50;30.50;;;;;9.16;71.64;101810.06;5061838;28;46183;-76
2021/10/15 03:05:41;;;;;;;;;34.75;30.50;;;;;9.15;71.41;101822.31;5062764;28;45222;-76
2021/10/15 03:08:07;;;;;;;;;38.00;33.00;;;;;9.14;71.62;101822.31;5062596;28;45224;-76
2021/10/15 03:10:32;;;;;;;;;30.25;29.75;;;;;9.16;71.67;101815.31;5077899;28;47140;-77
2021/10/15 03:12:58;;;;;;;;;31.00;27.75;;;;;9.17;71.65;101820.53;5061330;28;45460;-76
2021/10/15 03:15:23;;;;;;;;;33.25;27.75;;;;;9.14;71.36;101815.31;5062382;28;45294;-75
2021/10/15 03:17:48;;;;;;;;;36.25;30.75;;;;;9.10;71.48;101811.88;5062811;28;45387;-75
2021/10/15 03:20:14;;;;;;;;;37.25;31.00;;;;;9.13;71.82;101810.97;5063375;28;45335;-76
2021/10/15 03:22:39;;;;;;;;;36.75;31.50;;;;;9.08;71.61;101805.75;5069980;27;45504;-76
2021/10/15 03:25:05;;;;;;;;;34.25;32.00;;;;;9.13;71.51;101818.84;5062181;28;45366;-75
2021/10/15 03:27:30;;;;;;;;;37.50;27.75;;;;;9.11;71.50;101807.50;5062372;28;45333;-75
2021/10/15 03:29:55;;;;;;;;;31.25;30.00;;;;;9.10;71.87;101808.38;5063403;28;45591;-74
2021/10/15 03:32:21;;;;;;;;;29.25;28.00;;;;;9.08;71.57;101797.03;5061920;28;45286;-75
2021/10/15 03:34:46;;;;;;;;;35.50;32.25;;;;;9.09;71.44;101798.75;5062122;28;45326;-75
2021/10/15 03:37:12;;;;;;;;;35.50;30.50;;;;;9.08;71.72;101802.28;5060858;28;45281;-75
2021/10/15 03:39:37;;;;;;;;;33.00;31.00;;;;;9.06;71.42;101806.66;5062051;28;45301;-75
2021/10/15 03:42:03;;;;;;;;;35.50;31.50;;;;;9.06;71.48;101810.13;5060928;28;45683;-76
2021/10/15 03:44:28;;;;;;;;;33.00;31.50;;;;;9.07;71.70;101804.00;5062306;28;45412;-75
2021/10/15 03:46:54;;;;;;;;;34.25;32.00;;;;;9.05;71.53;101808.41;5062139;28;45283;-76
2021/10/15 03:49:19;;;;;;;;;36.00;32.25;;;;;9.07;71.31;101805.75;5061819;28;45208;-74
2021/10/15 03:51:44;;;;;;;;;40.00;32.75;;;;;9.04;71.86;101805.81;5060982;28;46690;-74
2021/10/15 03:54:10;;;;;;;;;30.75;29.75;;;;;9.06;71.74;101809.28;5062130;28;45271;-74
2021/10/15 03:56:35;;;;;;;;;34.25;31.25;;;;;9.07;71.72;101813.63;5061755;28;45174;-74
2021/10/15 03:59:00;;;;;;;;;39.25;32.00;;;;;9.07;71.63;101811.00;5061278;28;45235;-74
2021/10/15 04:01:26;;;;;;;;;35.50;31.25;;;;;9.09;71.63;101809.22;5061085;28;45425;-74
2021/10/15 04:03:51;;;;;;;;;36.75;33.00;;;;;9.09;71.62;101804.88;5061643;28;45120;-74
2021/10/15 04:06:17;;;;;;;;;34.50;30.00;;;;;9.05;71.38;101794.41;5061853;28;45807;-75
2021/10/15 04:08:42;;;;;;;;;38.50;34.00;;;;;9.09;71.92;101804.00;5060261;28;45204;-75
2021/10/15 04:11:07;;;;;;;;;37.00;32.25;;;;;9.10;71.65;101805.75;5061525;28;45653;-76
2021/10/15 04:13:33;;;;;;;;;33.25;29.50;;;;;9.06;72.04;101796.16;5061335;28;45879;-76
2021/10/15 04:16:01;;;;;;;;;33.00;32.25;;;;;9.07;71.67;101795.28;5061908;28;45342;-76
2021/10/15 04:18:28;;;;;;;;;36.25;32.25;;;;;9.10;72.02;101801.38;5060833;28;45484;-74
2021/10/15 04:20:53;;;;;;;;;41.00;33.25;;;;;9.05;72.05;101790.06;5061238;28;46323;-75
2021/10/15 04:23:18;;;;;;;;;42.25;34.00;;;;;9.08;71.86;101789.16;5061397;28;45165;-76
2021/10/15 04:25:44;;;;;;;;;35.50;32.50;;;;;9.12;72.14;101793.47;5061644;28;45503;-75
2021/10/15 04:28:09;;;;;;;;;40.50;33.50;;;;;9.11;71.95;101786.50;5061229;28;45375;-75
2021/10/15 04:30:35;;;;;;;;;48.75;36.50;;;;;9.12;72.20;101790.84;5060128;28;46577;-74
2021/10/15 04:33:00;;;;;;;;;39.75;35.00;;;;;9.12;71.94;101780.34;5060993;28;45761;-75
2021/10/15 04:35:26;;;;;;;;;39.25;32.25;;;;;9.17;72.27;101778.56;5061291;28;45189;-75
2021/10/15 04:37:51;;;;;;;;;39.75;32.50;;;;;9.20;72.16;101785.53;5060638;28;45314;-75
2021/10/15 04:40:17;;;;;;;;;41.75;34.00;;;;;9.20;72.12;101778.53;5059112;28;46208;-76
2021/10/15 04:42:42;;;;;;;;;37.00;32.75;;;;;9.22;72.53;101768.91;5061045;28;45245;-76
2021/10/15 04:45:09;;;;;;;;;35.50;31.75;;;;;9.22;72.53;101774.16;5059798;28;45193;-76
2021/10/15 04:47:34;;;;;;;;;41.00;35.00;;;;;9.22;72.34;101773.28;5058800;28;45540;-75
2021/10/15 04:50:00;;;;;;;;;36.25;32.25;;;;;9.22;72.44;101768.03;5059570;28;46231;-76
2021/10/15 04:52:25;;;;;;;;;46.50;36.00;;;;;9.20;72.27;101770.66;5057347;28;45577;-76
2021/10/15 04:54:50;;;;;;;;;42.50;37.00;;;;;9.22;72.31;101768.91;5061031;28;45396;-76
2021/10/15 04:57:16;;;;;;;;;42.25;35.75;;;;;9.20;72.58;101761.94;5060035;28;45517;-76
2021/10/15 04:59:41;;;;;;;;;42.25;35.25;;;;;9.22;72.64;101757.53;5060681;28;45558;-77
2021/10/15 05:02:06;;;;;;;;;47.75;35.00;;;;;9.21;72.15;101751.41;5059528;28;45475;-76
2021/10/15 05:04:32;;;;;;;;;41.00;34.50;;;;;9.27;72.50;101763.59;5061109;28;45338;-76
2021/10/15 05:06:58;;;;;;;;;48.00;38.00;;;;;9.21;72.35;101761.91;5060667;28;45302;-76
2021/10/15 05:09:33;;;;;;;;;44.25;36.00;;;;;9.22;72.86;101757.53;5060543;28;45297;-76
2021/10/15 05:12:01;;;;;;;;;42.00;37.75;;;;;9.21;72.85;101767.16;5059317;28;47049;-77
2021/10/15 05:14:27;;;;;;;;;45.75;38.75;;;;;9.22;72.90;101757.53;5058679;28;45375;-77
2021/10/15 05:16:53;;;;;;;;;48.00;38.00;;;;;9.26;72.85;101763.63;5058101;28;45306;-78
2021/10/15 05:19:20;;;;;;;;;49.00;39.00;;;;;9.21;72.39;101750.56;5058611;28;46103;-77
2021/10/15 05:21:45;;;;;;;;;47.00;38.25;;;;;9.22;72.66;101753.16;5058881;28;45471;-77
2021/10/15 05:24:11;;;;;;;;;50.00;41.00;;;;;9.22;72.80;101752.28;5058243;28;45330;-77
2021/10/15 05:26:37;;;;;;;;;49.00;39.75;;;;;9.21;72.53;101753.19;5074481;28;47082;-78
2021/10/15 05:29:02;;;;;;;;;45.25;37.00;;;;;9.25;72.44;101754.00;5055414;28;46276;-78
2021/10/15 05:31:28;;;;;;;;;50.75;39.00;;;;;9.21;72.89;101755.81;5059756;28;45944;-77
2021/10/15 05:33:53;;;;;;;;;48.50;38.50;;;;;9.21;72.45;101756.66;5060149;28;45311;-78
2021/10/15 05:36:19;;;;;;;;;48.00;40.75;;;;;9.24;72.68;101761.00;5057475;28;45484;-78
2021/10/15 05:38:44;;;;;;;;;44.75;37.50;;;;;9.26;72.50;101768.88;5058431;28;45420;-78
2021/10/15 05:41:09;;;;;;;;;47.75;38.50;;;;;9.26;72.63;101768.88;5057347;28;45212;-78
2021/10/15 05:43:35;;;;;;;;;49.25;38.75;;;;;9.21;72.81;101759.28;5058185;28;45280;-78
2021/10/15 05:46:02;;;;;;;;;49.75;40.50;;;;;9.22;72.35;101758.41;5058821;28;45362;-78
2021/10/15 05:48:27;;;;;;;;;52.75;41.00;;;;;9.19;72.41;101758.44;5058221;28;46372;-78
2021/10/15 05:50:52;;;;;;;;;46.75;38.50;;;;;9.18;72.58;101761.94;5058867;28;45346;-77
2021/10/15 05:53:19;;;;;;;;;49.50;39.75;;;;;9.19;72.26;101762.81;5057773;28;45270;-77
2021/10/15 06:01:03;;;;;;;;;47.25;38.00;;;;;9.14;72.86;101759.34;5054537;28;45387;-76
2021/10/15 06:03:28;;;;;;;;;47.25;37.75;;;;;9.16;72.20;101765.47;5058535;28;45415;-76
2021/10/15 06:14:22;;;;;;;;;48.50;40.00;;;;;9.10;72.32;101774.28;5057643;28;45463;-78
2021/10/15 06:16:58;;;;;;;;;49.75;39.25;;;;;9.15;72.63;101777.72;5058525;28;45483;-78
2021/10/15 06:19:25;;;;;;;;;48.25;40.00;;;;;9.14;72.78;101782.97;5059219;28;45445;-78
2021/10/15 06:21:51;;;;;;;;;53.50;42.00;;;;;9.14;72.61;101781.22;5059225;28;45868;-78
2021/10/15 06:24:17;;;;;;;;;54.00;42.00;;;;;9.15;73.06;101776.84;5057833;28;45542;-78
2021/10/15 06:26:43;;;;;;;;;53.25;41.75;;;;;9.15;72.86;101777.72;5059645;28;45413;-78
2021/10/15 06:29:09;;;;;;;;;51.00;41.25;;;;;9.15;73.01;101777.72;5059457;28;46401;-78
2021/10/15 06:31:35;;;;;;;;;52.00;43.00;;;;;9.18;73.34;101782.06;5059614;28;45361;-78
2021/10/15 06:34:00;;;;;;;;;51.25;41.25;;;;;9.24;73.11;101792.47;5058853;28;45318;-78
2021/10/15 06:36:26;;;;;;;;;54.25;43.50;;;;;9.20;72.78;101789.03;5057922;28;45661;-78
2021/10/15 06:38:52;;;;;;;;;51.75;42.50;;;;;9.21;73.38;101782.03;5061901;28;45594;-78
2021/10/15 06:41:18;;;;;;;;;51.00;41.00;;;;;9.30;73.61;101791.56;5062031;28;45314;-78
2021/10/15 06:43:44;;;;;;;;;56.75;44.50;;;;;9.25;73.33;101780.25;5062429;28;45468;-78
2021/10/15 06:46:10;;;;;;;;;53.00;42.50;;;;;9.26;73.21;101780.22;5060877;28;45407;-78
2021/10/15 06:48:35;;;;;;;;;55.75;46.00;;;;;9.27;73.27;101784.59;5061629;28;45378;-78
2021/10/15 06:51:00;;;;;;;;;52.25;41.00;;;;;9.29;73.26;101780.19;5062728;28;45263;-78
2021/10/15 06:53:26;;;;;;;;;50.50;41.50;;;;;9.33;73.44;101792.38;5062302;28;45253;-78
2021/10/15 06:55:52;;;;;;;;;52.75;42.75;;;;;9.28;73.30;101778.47;5061443;28;45523;-78
2021/10/15 06:58:17;;;;;;;;;52.75;42.00;;;;;9.35;73.31;101781.88;5062354;28;46421;-78
2021/10/15 07:00:43;;;;;;;;;52.50;41.50;;;;;9.34;73.55;101783.63;5062706;28;45368;-78
2021/10/15 07:03:16;;;;;;;;;50.50;42.00;;;;;9.37;73.60;101782.72;5062494;28;45473;-78
2021/10/15 07:05:42;;;;;;;;;52.25;43.25;;;;;9.40;73.41;101789.69;5060033;28;45562;-78
2021/10/15 07:08:08;;;;;;;;;51.75;41.25;;;;;9.42;73.72;101786.19;5058168;28;46206;-78
2021/10/15 07:10:33;;;;;;;;;53.00;41.50;;;;;9.43;73.66;101785.28;5062245;28;45290;-78
2021/10/15 07:12:58;;;;;;;;;51.75;41.50;;;;;9.45;73.55;101775.66;5062607;28;45748;-79
2021/10/15 07:15:24;;;;;;;;;54.75;44.25;;;;;9.51;73.76;101790.44;5062408;28;45564;-79
2021/10/15 07:17:49;;;;;;;;;55.25;43.00;;;;;9.50;73.90;101780.84;5061183;28;46486;-79
2021/10/15 07:20:15;;;;;;;;;60.25;47.00;;;;;9.57;73.77;101789.50;5061423;28;45475;-79
2021/10/15 07:22:41;;;;;;;;;58.50;47.00;;;;;9.59;73.74;101782.47;5062481;28;45325;-79
2021/10/15 07:25:08;;;;;;;;;56.25;46.25;;;;;9.65;73.50;101798.19;5061488;28;45578;-81
2021/10/15 07:27:35;;;;;;;;;56.25;46.00;;;;;9.68;73.74;101797.25;5061507;28;46256;-79
2021/10/15 07:30:01;;;;;;;;;56.50;44.00;;;;;9.70;73.42;101799.88;5061868;28;45443;-79
2021/10/15 07:32:26;;;;;;;;;54.50;44.00;;;;;9.72;73.82;101805.97;5062456;28;45278;-79
2021/10/15 07:34:52;;;;;;;;;51.25;43.00;;;;;9.74;73.77;101806.81;5058987;28;45705;-79
2021/10/15 07:37:17;;;;;;;;;53.50;43.25;;;;;9.80;73.75;101814.63;5059994;28;45404;-79
2021/10/15 07:39:43;;;;;;;;;52.50;43.00;;;;;9.78;73.78;101812.00;5061816;28;45327;-79
2021/10/15 07:42:08;;;;;;;;;54.75;42.00;;;;;9.86;73.31;101822.41;5061085;28;45209;-80
2021/10/15 07:44:34;;;;;;;;;56.25;45.00;;;;;9.93;73.49;101827.56;5061959;28;45526;-80
2021/10/15 07:46:59;;;;;;;;;50.00;40.50;;;;;9.89;73.38;101814.50;5060502;28;46437;-80
2021/10/15 07:49:25;;;;;;;;;57.25;44.25;;;;;9.98;73.75;101817.88;5059533;28;45360;-80
2021/10/15 07:51:50;;;;;;;;;52.50;43.00;;;;;9.99;73.58;101809.13;5059994;28;45317;-80
2021/10/15 07:54:16;;;;;;;;;55.75;45.75;;;;;10.06;73.42;101812.53;5061023;28;45400;-80
2021/10/15 07:56:41;;;;;;;;;53.00;44.00;;;;;10.15;73.62;101815.03;5061832;28;45696;-80
2021/10/15 07:59:07;;;;;;;;;55.25;44.50;;;;;10.19;73.43;101813.25;5061460;28;45334;-80
2021/10/15 08:01:32;;;;;;;;;54.00;43.50;;;;;10.22;73.67;101805.31;5059274;28;45443;-80
2021/10/15 08:03:59;;;;;;;;;58.00;45.25;;;;;10.29;73.86;101813.97;5059934;28;45491;-80
2021/10/15 08:06:25;;;;;;;;;53.50;44.25;;;;;10.38;73.80;101812.97;5047649;28;46538;-80
2021/10/15 08:08:51;;;;;;;;;54.25;45.50;;;;;10.42;73.56;101812.03;5061638;28;45228;-80
2021/10/15 08:11:17;;;;;;;;;53.00;43.00;;;;;10.52;73.39;101829.44;5061173;28;45635;-80
2021/10/15 08:13:42;;;;;;;;;55.25;44.75;;;;;10.58;73.50;101816.19;5059616;28;45445;-80
2021/10/15 08:16:08;;;;;;;;;56.25;45.00;;;;;10.63;73.56;101818.75;5060537;28;46703;-80
2021/10/15 08:18:33;;;;;;;;;61.50;46.00;;;;;10.72;73.73;101828.25;5061266;28;45371;-81
2021/10/15 08:20:59;;;;;;;;;57.00;46.00;;;;;10.84;72.83;101831.59;5060247;28;45738;-80
2021/10/15 08:23:26;;;;;;;;;59.50;46.75;;;;;10.86;73.11;101824.53;5057385;28;45342;-80
2021/10/15 08:25:53;;;;;;;;;52.25;43.50;;;;;10.93;73.12;101825.28;5050396;28;45760;-80
2021/10/15 08:28:19;;;;;;;;;57.75;44.50;;;;;11.02;73.26;101828.63;5056044;28;45473;-80
2021/10/15 08:30:44;;;;;;;;;57.50;46.50;;;;;11.05;72.93;101825.09;5060553;28;45285;-80
2021/10/15 08:33:10;;;;;;;;;59.00;46.75;;;;;11.13;72.90;101832.84;5059815;28;45434;-80
2021/10/15 08:35:35;;;;;;;;;56.25;44.00;;;;;11.14;72.62;101824.91;5060599;28;45308;-80
2021/10/15 08:38:00;;;;;;;;;56.00;45.25;;;;;11.18;72.43;101823.13;5058857;28;45222;-81
2021/10/15 08:40:27;;;;;;;;;59.00;46.25;;;;;11.22;72.17;101829.19;5060233;28;45266;-81
2021/10/15 08:42:56;;;;;;;;;57.50;46.00;;;;;11.21;72.42;101823.03;5057246;28;46925;-80
2021/10/15 08:45:24;;;;;;;;;56.00;47.00;;;;;11.29;72.08;101829.91;5059843;28;45511;-80
2021/10/15 08:47:50;;;;;;;;;57.75;46.00;;;;;11.33;72.11;101829.00;5059557;28;45770;-81
2021/10/15 08:50:15;;;;;;;;;61.00;46.50;;;;;11.33;72.25;101818.47;5060539;28;45330;-81
2021/10/15 08:52:41;;;;;;;;;59.25;45.25;;;;;11.34;71.95;101820.19;5058734;28;46461;-81
2021/10/15 08:55:06;;;;;;;;;59.75;46.75;;;;;11.38;71.98;101831.53;5059784;28;46204;-81
2021/10/15 08:57:32;;;;;;;;;57.50;46.00;;;;;11.42;71.72;101836.72;5060320;28;45235;-81
2021/10/15 08:59:57;;;;;;;;;62.75;49.75;;;;;11.45;72.20;101827.88;5058974;28;45298;-81
2021/10/15 09:02:23;;;;;;;;;61.25;48.50;;;;;11.48;71.77;101825.19;5058614;28;45447;-81
2021/10/15 09:04:52;;;;;;;;;60.00;49.00;;;;;11.59;71.72;101833.75;5059768;28;45594;-80
2021/10/15 09:07:20;;;;;;;;;62.25;49.25;;;;;11.62;71.46;101830.19;5059090;28;45762;-80
2021/10/15 09:09:47;;;;;;;;;64.00;50.00;;;;;11.68;71.62;101835.31;5060080;28;45290;-80
2021/10/15 09:12:18;;;;;;;;;63.75;51.25;;;;;11.73;71.12;101829.13;5056911;28;45314;-80
2021/10/15 09:14:46;;;;;;;;;63.50;51.00;;;;;11.83;71.24;101838.53;5059892;28;46414;-80
2021/10/15 09:17:25;;;;;;;;;63.50;51.00;;;;;11.86;70.88;101827.94;5058956;28;45181;-80
2021/10/15 09:19:59;;;;;;;;;67.25;53.00;;;;;11.92;70.93;101840.13;5051312;28;45414;-80
2021/10/15 09:22:33;;;;;;;;;68.25;52.75;;;;;11.95;70.91;101836.56;5057771;28;45686;-81
2021/10/15 09:25:03;;;;;;;;;65.50;52.25;;;;;11.97;70.62;101833.00;5056971;28;47023;-81
2021/10/15 09:27:40;;;;;;;;;68.25;52.25;;;;;12.03;71.04;101839.88;5058791;28;45537;-82
2021/10/15 09:30:11;;;;;;;;;65.75;51.75;;;;;12.09;70.77;101838.91;5059121;28;45375;-80
2021/10/15 09:32:39;;;;;;;;;63.75;51.00;;;;;12.11;70.53;101837.97;5060055;28;45341;-81
2021/10/15 09:35:07;;;;;;;;;65.00;52.00;;;;;12.20;70.91;101842.19;5055164;28;45405;-80
2021/10/15 09:37:35;;;;;;;;;64.75;51.75;;;;;12.19;70.28;101839.59;5059436;28;45452;-80
2021/10/15 09:40:15;;;;;;;;;64.25;50.75;;;;;12.25;70.00;101855.25;5059279;28;45421;-81
2021/10/15 09:42:47;;;;;;;;;60.75;48.00;;;;;12.23;70.21;101850.03;5058673;28;45828;-80
2021/10/15 09:45:15;;;;;;;;;62.75;50.00;;;;;12.27;69.65;101856.13;5058463;28;45428;-80
2021/10/15 09:47:43;;;;;;;;;65.75;51.75;;;;;12.34;69.73;101856.84;5055490;28;45429;-80
2021/10/15 09:50:10;;;;;;;;;65.75;52.00;;;;;12.33;69.40;101853.34;5061855;28;45267;-80
2021/10/15 09:52:39;;;;;;;;;62.75;49.75;;;;;12.36;69.31;101847.13;5060182;28;45439;-80
2021/10/15 09:55:05;;;;;;;;;68.00;51.50;;;;;12.44;69.67;101854.88;5056178;28;45712;-80
2021/10/15 09:57:34;;;;;;;;;61.50;49.25;;;;;12.40;69.33;101850.53;5059968;28;45184;-80
2021/10/15 10:00:01;;;;;;;;;61.25;49.00;;;;;12.45;69.21;101856.59;5060172;28;45413;-80
2021/10/15 10:02:27;;;;;;;;;65.75;51.00;;;;;12.51;69.12;101852.94;5059628;28;45446;-80
2021/10/15 10:04:55;;;;;;;;;62.50;50.75;;;;;12.54;69.14;101844.97;5059229;28;46476;-81
2021/10/15 10:07:20;;;;;;;;;58.75;47.75;;;;;12.57;69.14;101848.38;5059451;28;45241;-80
2021/10/15 10:09:46;;;;;;;;;65.75;51.75;;;;;12.63;69.14;101850.03;5058869;28;45304;-80
2021/10/15 10:12:12;;;;;;;;;63.00;51.00;;;;;12.71;68.68;101856.00;5059541;28;45202;-80
2021/10/15 10:14:38;;;;;;;;;58.00;47.00;;;;;12.79;68.89;101858.41;5059076;28;46740;-78
2021/10/15 10:17:06;;;;;;;;;66.00;52.50;;;;;12.87;68.42;101862.63;5059720;28;45271;-80
2021/10/15 10:19:36;;;;;;;;;64.50;50.25;;;;;12.92;68.72;101855.47;5059518;28;45362;-80
2021/10/15 10:22:02;;;;;;;;;66.25;51.00;;;;;13.01;68.23;101857.88;5063090;28;45529;-80
2021/10/15 10:24:31;;;;;;;;;66.25;51.25;;;;;13.09;68.67;101857.69;5057226;28;46378;-81
2021/10/15 10:26:58;;;;;;;;;62.00;50.00;;;;;13.15;68.10;101854.91;5058822;28;46399;-81
2021/10/15 10:29:24;;;;;;;;;61.25;47.50;;;;;13.26;67.55;101859.06;5058713;28;45421;-81
2021/10/15 10:31:52;;;;;;;;;61.25;47.75;;;;;13.34;67.84;101856.19;5058028;28;45404;-81
2021/10/15 10:34:26;;;;;;;;;68.25;52.50;;;;;13.41;67.21;101857.75;5058706;28;45418;-81
2021/10/15 10:37:12;;;;;;;;;65.00;50.00;;;;;13.46;66.88;101853.22;5047622;28;45438;-81
2021/10/15 10:39:39;;;;;;;;;62.00;49.25;;;;;13.49;67.04;101854.91;5051278;28;45316;-81
2021/10/15 10:42:08;;;;;;;;;58.75;46.00;;;;;13.58;67.26;101864.41;5057566;28;45358;-81
2021/10/15 10:44:35;;;;;;;;;60.25;48.00;;;;;13.58;67.21;101859.97;5058985;28;45401;-81
2021/10/15 10:47:11;;;;;;;;;60.00;46.75;;;;;13.60;66.63;101857.28;5059499;28;45771;-81
2021/10/15 10:49:37;;;;;;;;;58.00;46.75;;;;;13.57;66.28;101855.59;5058872;28;45290;-81
2021/10/15 10:52:17;;;;;;;;;59.25;47.25;;;;;13.61;66.66;101856.38;5058185;28;45325;-81
2021/10/15 10:54:44;;;;;;;;;64.75;49.75;;;;;13.61;66.73;101856.38;5057797;28;46176;-81
2021/10/15 10:57:21;;;;;;;;;61.50;48.00;;;;;13.60;66.48;101852.88;5058700;28;45843;-81
2021/10/15 10:59:47;;;;;;;;;61.50;48.50;;;;;13.58;66.00;101849.38;5058442;28;45341;-80
2021/10/15 11:02:17;;;;;;;;;59.75;47.25;;;;;13.57;66.35;101842.41;5059071;28;45485;-80
2021/10/15 11:04:42;;;;;;;;;60.25;46.75;;;;;13.66;66.20;101862.38;5058909;28;45400;-80
2021/10/15 11:07:20;;;;;;;;;58.00;46.00;;;;;13.69;66.82;101856.16;5059330;28;45460;-80
2021/10/15 11:09:50;;;;;;;;;61.50;48.00;;;;;13.68;66.22;101855.28;5058137;28;45240;-80
2021/10/15 11:12:41;;;;;;;;;54.50;45.00;;;;;13.73;66.60;101852.50;5058659;28;45346;-80
2021/10/15 11:15:08;;;;;;;;;57.75;46.00;;;;;13.76;66.38;101848.91;5058703;28;46304;-80
2021/10/15 11:17:44;;;;;;;;;56.75;45.50;;;;;13.83;67.01;101851.34;5059221;28;46021;-80
2021/10/15 11:20:17;;;;;;;;;54.25;43.00;;;;;13.94;66.15;101844.88;5059105;28;45306;-81
2021/10/15 11:23:07;;;;;;;;;55.00;44.25;;;;;14.01;66.11;101840.28;5070746;27;45315;-80
2021/10/15 11:25:40;;;;;;;;;58.00;44.00;;;;;14.08;65.62;101844.47;5051206;28;45515;-80